createdAt,value
2018-09-12T00:00:26.710Z,96.80
2018-09-12T00:02:56.205Z,96.90
2018-09-12T00:05:23.720Z,96.90
2018-09-12T00:07:51.161Z,97.30
2018-09-12T00:10:18.611Z,97.40
2018-09-12T00:12:46.082Z,97.60
2018-09-12T00:15:13.907Z,97.90
2018-09-12T00:17:41.349Z,97.90
2018-09-12T00:20:08.784Z,98.20
2018-09-12T00:22:36.293Z,98.30
2018-09-12T00:25:03.760Z,98.60
2018-09-12T00:27:31.216Z,99.00
2018-09-12T00:29:58.639Z,99.30
2018-09-12T00:32:26.091Z,99.60
2018-09-12T00:34:53.520Z,99.80
2018-09-12T00:37:21.004Z,99.90
2018-09-12T00:39:48.580Z,99.90
2018-09-12T00:42:16.021Z,99.90
2018-09-12T00:44:43.481Z,99.90
2018-09-12T00:47:10.936Z,99.90
2018-09-12T00:49:38.389Z,99.90
2018-09-12T00:52:05.843Z,99.90
2018-09-12T00:54:33.298Z,99.90
2018-09-12T00:57:00.777Z,99.90
2018-09-12T00:59:28.220Z,99.90
2018-09-12T01:01:55.693Z,99.90
2018-09-12T01:04:23.129Z,99.90
2018-09-12T01:06:50.563Z,99.90
2018-09-12T01:09:18.017Z,99.90
2018-09-12T01:11:45.495Z,99.90
2018-09-12T01:14:12.992Z,99.90
2018-09-12T01:16:40.480Z,99.90
2018-09-12T01:19:07.997Z,99.90
2018-09-12T01:21:35.509Z,99.90
2018-09-12T01:24:02.963Z,99.90
2018-09-12T01:26:30.404Z,99.90
2018-09-12T01:28:57.840Z,99.90
2018-09-12T01:31:25.297Z,99.90
2018-09-12T01:33:52.780Z,99.90
2018-09-12T01:36:20.228Z,99.90
2018-09-12T01:38:47.777Z,99.90
2018-09-12T01:41:15.178Z,99.90
2018-09-12T01:43:42.587Z,99.90
2018-09-12T01:46:10.012Z,99.90
2018-09-12T01:48:37.424Z,99.90
2018-09-12T01:51:04.863Z,99.90
2018-09-12T01:53:32.267Z,99.90
2018-09-12T01:55:59.796Z,99.90
2018-09-12T01:58:27.403Z,99.90
2018-09-12T02:00:54.780Z,99.90
2018-09-12T02:03:22.195Z,99.90
2018-09-12T02:05:49.623Z,99.90
2018-09-12T02:08:17.089Z,99.90
2018-09-12T02:10:44.500Z,99.90
2018-09-12T02:13:12.080Z,99.90
2018-09-12T02:15:39.509Z,99.90
2018-09-12T02:18:06.912Z,99.90
2018-09-12T02:20:34.331Z,99.90
2018-09-12T02:23:01.747Z,99.90
2018-09-12T02:25:29.179Z,99.90
2018-09-12T02:27:56.601Z,99.90
2018-09-12T02:30:24.116Z,99.90
2018-09-12T02:32:51.583Z,99.90
2018-09-12T02:35:18.993Z,99.90
2018-09-12T02:37:46.436Z,99.90
2018-09-12T02:40:13.869Z,99.90
2018-09-12T02:42:41.436Z,99.90
2018-09-12T02:45:08.860Z,99.90
2018-09-12T02:47:39.119Z,99.90
2018-09-12T02:50:07.654Z,99.90
2018-09-12T02:52:35.228Z,99.90
2018-09-12T02:55:02.624Z,99.90
2018-09-12T02:57:30.048Z,99.90
2018-09-12T02:59:57.460Z,99.90
2018-09-12T03:02:24.923Z,99.90
2018-09-12T03:04:52.619Z,99.90
2018-09-12T03:07:20.088Z,99.90
2018-09-12T03:09:47.532Z,99.90
2018-09-12T03:12:15.385Z,99.90
2018-09-12T03:14:42.843Z,99.90
2018-09-12T03:17:10.841Z,99.90
2018-09-12T03:19:38.243Z,99.90
2018-09-12T03:22:05.851Z,99.90
2018-09-12T03:24:33.439Z,99.90
2018-09-12T03:27:00.900Z,99.90
2018-09-12T03:29:28.444Z,99.90
2018-09-12T03:31:55.935Z,99.90
2018-09-12T03:34:23.396Z,99.90
2018-09-12T03:36:50.840Z,99.90
2018-09-12T03:39:18.275Z,99.90
2018-09-12T03:41:45.765Z,99.90
2018-09-12T03:44:13.208Z,99.90
2018-09-12T03:46:41.460Z,99.90
2018-09-12T03:49:09.072Z,99.90
2018-09-12T03:51:36.500Z,99.90
2018-09-12T03:54:03.969Z,99.90
2018-09-12T03:56:31.392Z,99.90
2018-09-12T03:58:58.837Z,99.90
2018-09-12T04:01:26.300Z,99.90
2018-09-12T04:03:53.869Z,99.90
2018-09-12T04:06:21.739Z,99.90
2018-09-12T04:08:49.187Z,99.90
2018-09-12T04:11:17.772Z,99.90
2018-09-12T04:13:45.364Z,99.90
2018-09-12T04:16:12.773Z,99.90
2018-09-12T04:18:40.234Z,99.90
2018-09-12T04:21:07.807Z,99.90
2018-09-12T04:23:35.240Z,99.90
2018-09-12T04:26:02.667Z,99.90
2018-09-12T04:28:30.155Z,99.90
2018-09-12T04:30:57.573Z,99.90
2018-09-12T04:33:25.008Z,99.90
2018-09-12T04:35:52.485Z,99.90
2018-09-12T04:38:19.921Z,99.90
2018-09-12T04:40:47.380Z,99.90
2018-09-12T04:43:14.876Z,99.90
2018-09-12T04:45:42.288Z,99.90
2018-09-12T04:48:09.732Z,99.90
2018-09-12T04:50:37.143Z,99.90
2018-09-12T04:53:04.588Z,99.90
2018-09-12T04:55:32.013Z,99.90
2018-09-12T04:58:00.595Z,99.90
2018-09-12T05:00:27.990Z,99.90
2018-09-12T05:02:55.433Z,99.90
2018-09-12T05:05:22.872Z,99.90
2018-09-12T05:07:50.303Z,99.90
2018-09-12T05:10:17.794Z,99.90
2018-09-12T05:12:45.287Z,99.90
2018-09-12T05:15:12.737Z,99.90
2018-09-12T05:17:40.136Z,99.90
2018-09-12T05:20:07.582Z,99.90
2018-09-12T05:22:35.016Z,99.90
2018-09-12T05:25:02.431Z,99.90
2018-09-12T05:27:29.918Z,99.90
2018-09-12T05:29:57.316Z,99.90
2018-09-12T05:32:24.767Z,99.90
2018-09-12T05:34:52.423Z,99.90
2018-09-12T05:37:19.852Z,99.90
2018-09-12T05:39:47.302Z,99.90
2018-09-12T05:42:14.703Z,99.90
2018-09-12T05:44:42.161Z,99.90
2018-09-12T05:47:09.560Z,99.90
2018-09-12T05:49:37.002Z,99.90
2018-09-12T05:52:04.538Z,99.90
2018-09-12T05:54:31.935Z,99.90
2018-09-12T05:56:59.336Z,99.90
2018-09-12T05:59:26.872Z,99.90
2018-09-12T06:01:54.300Z,99.90
2018-09-12T06:04:21.747Z,99.90
2018-09-12T06:06:49.216Z,99.90
2018-09-12T06:09:16.972Z,99.90
2018-09-12T06:11:44.392Z,99.90
2018-09-12T06:14:11.862Z,99.90
2018-09-12T06:16:39.266Z,99.90
2018-09-12T06:19:06.679Z,99.90
2018-09-12T06:21:34.439Z,99.90
2018-09-12T06:24:01.920Z,99.90
2018-09-12T06:26:29.548Z,99.90
2018-09-12T06:28:57.023Z,99.90
2018-09-12T06:31:24.418Z,99.90
2018-09-12T06:33:51.836Z,99.90
2018-09-12T06:36:19.264Z,99.90
2018-09-12T06:38:46.743Z,99.90
2018-09-12T06:41:14.199Z,99.90
2018-09-12T06:43:41.724Z,99.90
2018-09-12T06:46:09.187Z,99.90
2018-09-12T06:48:36.611Z,99.90
2018-09-12T06:51:04.040Z,99.90
2018-09-12T06:53:31.491Z,99.90
2018-09-12T06:55:58.979Z,99.90
2018-09-12T06:58:26.432Z,99.90
2018-09-12T07:00:54.028Z,99.90
2018-09-12T07:03:21.428Z,99.90
2018-09-12T07:05:48.874Z,99.90
2018-09-12T07:08:16.427Z,99.90
2018-09-12T07:10:43.878Z,99.90
2018-09-12T07:13:11.347Z,99.90
2018-09-12T07:15:38.769Z,99.90
2018-09-12T07:18:06.260Z,99.90
2018-09-12T07:20:33.693Z,99.90
2018-09-12T07:23:01.131Z,99.90
2018-09-12T07:25:28.577Z,99.90
2018-09-12T07:27:56.041Z,99.90
2018-09-12T07:30:23.582Z,98.60
2018-09-12T07:32:51.020Z,97.40
2018-09-12T07:35:18.519Z,95.80
2018-09-12T07:37:45.941Z,94.40
2018-09-12T07:40:13.395Z,94.70
2018-09-12T07:42:40.833Z,92.70
2018-09-12T07:45:08.243Z,91.00
2018-09-12T07:47:35.684Z,90.50
2018-09-12T07:50:03.134Z,90.50
2018-09-12T07:52:30.629Z,88.20
2018-09-12T07:54:58.097Z,86.80
2018-09-12T07:57:25.516Z,87.00
2018-09-12T07:59:53.086Z,84.80
2018-09-12T08:02:20.489Z,83.60
2018-09-12T08:04:47.953Z,82.80
2018-09-12T08:07:15.655Z,83.30
2018-09-12T08:09:43.225Z,83.50
2018-09-12T08:12:11.238Z,81.30
2018-09-12T08:14:38.610Z,80.00
2018-09-12T08:17:06.113Z,80.20
2018-09-12T08:19:33.511Z,79.20
2018-09-12T08:22:00.944Z,77.30
2018-09-12T08:24:28.368Z,76.40
2018-09-12T08:26:55.836Z,77.00
2018-09-12T08:29:23.321Z,75.40
2018-09-12T08:31:51.267Z,74.70
2018-09-12T08:34:18.691Z,76.20
2018-09-12T08:36:46.108Z,73.10
2018-09-12T08:39:13.635Z,70.60
2018-09-12T08:41:41.068Z,69.90
2018-09-12T08:44:08.576Z,71.10
2018-09-12T08:46:36.004Z,70.60
2018-09-12T08:49:03.565Z,70.00
2018-09-12T08:51:31.046Z,71.90
2018-09-12T08:53:58.436Z,69.20
2018-09-12T08:56:25.892Z,70.40
2018-09-12T08:58:53.441Z,69.00
2018-09-12T09:01:20.963Z,69.60
2018-09-12T09:03:48.362Z,68.40
2018-09-12T09:06:15.787Z,68.20
2018-09-12T09:08:43.236Z,67.70
2018-09-12T09:11:10.673Z,67.80
2018-09-12T09:13:38.216Z,68.50
2018-09-12T09:16:05.636Z,67.50
2018-09-12T09:18:33.090Z,68.40
2018-09-12T09:21:00.505Z,67.50
2018-09-12T09:23:27.919Z,70.00
2018-09-12T09:25:55.368Z,72.80
2018-09-12T09:28:22.787Z,66.30
2018-09-12T09:30:50.280Z,67.90
2018-09-12T09:33:17.744Z,66.70
2018-09-12T09:35:45.441Z,66.70
2018-09-12T09:38:12.620Z,64.60
2018-09-12T09:40:40.035Z,64.30
2018-09-12T09:43:07.466Z,64.60
2018-09-12T09:45:34.867Z,64.90
2018-09-12T09:48:02.347Z,64.00
2018-09-12T09:50:29.725Z,64.20
2018-09-12T09:52:57.135Z,65.60
2018-09-12T09:55:24.564Z,67.50
2018-09-12T09:57:51.956Z,63.30
2018-09-12T10:00:24.772Z,62.70
2018-09-12T10:02:57.639Z,64.70
2018-09-12T10:05:29.376Z,60.60
2018-09-12T10:08:02.492Z,62.10
2018-09-12T10:10:30.001Z,61.20
2018-09-12T10:12:57.490Z,62.20
2018-09-12T10:15:24.983Z,63.80
2018-09-12T10:17:53.472Z,61.90
2018-09-12T10:20:20.888Z,62.10
2018-09-12T10:22:48.359Z,62.80
2018-09-12T10:25:16.026Z,61.60
2018-09-12T10:27:43.590Z,62.50
2018-09-12T10:30:11.053Z,59.70
2018-09-12T10:32:38.534Z,60.20
2018-09-12T10:35:05.960Z,60.50
2018-09-12T10:37:33.360Z,60.10
2018-09-12T10:40:00.833Z,60.00
2018-09-12T10:42:28.245Z,60.60
2018-09-12T10:44:55.652Z,59.80
2018-09-12T10:47:23.112Z,59.90
2018-09-12T10:49:50.529Z,57.80
2018-09-12T10:52:17.960Z,58.60
2018-09-12T10:54:45.364Z,58.90
2018-09-12T10:57:12.784Z,59.20
2018-09-12T10:59:40.252Z,59.20
2018-09-12T11:02:07.665Z,58.80
2018-09-12T11:04:35.164Z,57.60
2018-09-12T11:07:03.167Z,58.60
2018-09-12T11:09:30.606Z,60.00
2018-09-12T11:11:58.021Z,60.60
2018-09-12T11:14:25.544Z,61.00
2018-09-12T11:16:53.066Z,56.60
2018-09-12T11:19:20.476Z,58.00
2018-09-12T11:21:47.961Z,57.80
2018-09-12T11:24:15.433Z,56.70
2018-09-12T11:26:42.883Z,57.00
2018-09-12T11:29:10.319Z,56.10
2018-09-12T11:31:37.727Z,58.80
2018-09-12T11:34:05.288Z,56.80
2018-09-12T11:36:32.717Z,56.70
2018-09-12T11:39:00.148Z,58.30
2018-09-12T11:41:27.564Z,56.40
2018-09-12T11:43:54.987Z,57.60
2018-09-12T11:46:23.751Z,57.30
2018-09-12T11:48:51.161Z,55.70
2018-09-12T11:51:18.581Z,59.90
2018-09-12T11:53:46.020Z,58.30
2018-09-12T11:56:13.505Z,56.60
2018-09-12T11:58:40.932Z,57.20
2018-09-12T12:01:08.553Z,58.00
2018-09-12T12:03:35.997Z,57.10
2018-09-12T12:06:03.427Z,56.80
2018-09-12T12:08:30.930Z,56.90
2018-09-12T12:10:58.355Z,57.90
2018-09-12T12:13:25.876Z,57.10
2018-09-12T12:15:53.296Z,57.80
2018-09-12T12:18:20.804Z,58.40
2018-09-12T12:20:48.235Z,57.70
2018-09-12T12:23:15.787Z,57.20
2018-09-12T12:25:43.390Z,56.50
2018-09-12T12:28:10.939Z,56.30
2018-09-12T12:30:38.434Z,57.20
2018-09-12T12:33:05.875Z,58.50
2018-09-12T12:35:33.362Z,58.10
2018-09-12T12:38:00.696Z,58.00
2018-09-12T12:40:28.165Z,56.70
2018-09-12T12:42:55.697Z,58.10
2018-09-12T12:45:23.206Z,56.70
2018-09-12T12:47:50.699Z,57.00
2018-09-12T12:50:18.212Z,54.10
2018-09-12T12:52:45.767Z,55.50
2018-09-12T12:55:13.227Z,54.60
2018-09-12T12:57:40.685Z,55.00
2018-09-12T13:00:08.289Z,54.20
2018-09-12T13:02:35.716Z,55.20
2018-09-12T13:05:03.313Z,51.40
2018-09-12T13:07:30.736Z,52.00
2018-09-12T13:09:58.164Z,53.50
2018-09-12T13:12:25.608Z,53.30
2018-09-12T13:14:53.060Z,52.90
2018-09-12T13:17:20.540Z,54.40
2018-09-12T13:19:47.952Z,53.60
2018-09-12T13:22:15.525Z,55.50
2018-09-12T13:24:43.002Z,56.00
2018-09-12T13:27:10.540Z,55.00
2018-09-12T13:29:37.933Z,55.00
2018-09-12T13:32:05.453Z,52.30
2018-09-12T13:34:33.046Z,52.60
2018-09-12T13:37:00.532Z,53.10
2018-09-12T13:39:28.000Z,54.30
2018-09-12T13:41:56.505Z,53.00
2018-09-12T13:44:23.969Z,52.60
2018-09-12T13:46:51.328Z,53.40
2018-09-12T13:49:18.827Z,52.90
2018-09-12T13:51:46.358Z,51.90
2018-09-12T13:54:13.772Z,52.10
2018-09-12T13:56:41.362Z,52.40
2018-09-12T13:59:08.683Z,52.90
2018-09-12T14:01:36.096Z,53.80
2018-09-12T14:04:03.692Z,50.80
2018-09-12T14:06:31.102Z,52.90
2018-09-12T14:08:58.542Z,53.10
2018-09-12T14:11:25.927Z,54.00
2018-09-12T14:13:53.403Z,52.60
2018-09-12T14:16:20.854Z,51.00
2018-09-12T14:18:48.259Z,53.00
2018-09-12T14:21:15.840Z,50.80
2018-09-12T14:23:43.419Z,51.70
2018-09-12T14:26:11.340Z,53.10
2018-09-12T14:28:38.771Z,52.30
2018-09-12T14:31:06.215Z,50.60
2018-09-12T14:33:33.756Z,53.20
2018-09-12T14:36:01.231Z,52.20
2018-09-12T14:38:28.639Z,52.30
2018-09-12T14:40:56.059Z,52.50
2018-09-12T14:43:23.547Z,52.80
2018-09-12T14:45:50.995Z,52.40
2018-09-12T14:48:18.431Z,50.60
2018-09-12T14:50:47.988Z,52.70
2018-09-12T14:53:15.366Z,52.60
2018-09-12T14:55:42.769Z,53.10
2018-09-12T14:58:10.194Z,51.80
2018-09-12T15:00:37.781Z,52.90
2018-09-12T15:03:07.290Z,52.30
2018-09-12T15:05:34.727Z,53.70
2018-09-12T15:08:02.142Z,52.80
2018-09-12T15:10:29.616Z,52.70
2018-09-12T15:12:56.967Z,52.50
2018-09-12T15:15:24.373Z,52.90
2018-09-12T15:17:51.793Z,52.20
2018-09-12T15:20:19.217Z,52.70
2018-09-12T15:22:46.699Z,53.00
2018-09-12T15:25:15.056Z,53.60
2018-09-12T15:27:42.483Z,52.50
2018-09-12T15:30:10.435Z,52.30
2018-09-12T15:32:37.940Z,53.00
2018-09-12T15:35:05.348Z,53.30
2018-09-12T15:37:32.784Z,53.40
2018-09-12T15:40:00.251Z,53.60
2018-09-12T15:42:27.991Z,53.40
2018-09-12T15:44:57.528Z,53.90
2018-09-12T15:47:25.021Z,53.80
2018-09-12T15:49:58.752Z,54.60
2018-09-12T15:52:26.170Z,55.10
2018-09-12T15:54:53.673Z,55.00
2018-09-12T15:57:21.145Z,55.90
2018-09-12T15:59:48.927Z,54.40
2018-09-12T16:02:16.464Z,55.20
2018-09-12T16:04:43.893Z,54.70
2018-09-12T16:07:11.336Z,55.70
2018-09-12T16:09:38.794Z,55.90
2018-09-12T16:12:06.199Z,55.90
2018-09-12T16:14:33.624Z,55.90
2018-09-12T16:17:01.141Z,56.80
2018-09-12T16:19:28.659Z,56.40
2018-09-12T16:21:56.080Z,56.10
2018-09-12T16:24:23.641Z,56.10
2018-09-12T16:26:51.068Z,56.50
2018-09-12T16:29:18.472Z,56.40
2018-09-12T16:31:47.006Z,56.50
2018-09-12T16:34:14.431Z,56.70
2018-09-12T16:36:41.876Z,56.40
2018-09-12T16:39:10.274Z,56.80
2018-09-12T16:41:37.903Z,56.70
2018-09-12T16:44:05.344Z,57.10
2018-09-12T16:46:32.809Z,56.00
2018-09-12T16:49:00.218Z,57.50
2018-09-12T16:51:27.790Z,56.90
2018-09-12T16:53:55.185Z,57.20
2018-09-12T16:56:22.679Z,58.70
2018-09-12T16:58:54.156Z,58.10
2018-09-12T17:01:21.551Z,57.70
2018-09-12T17:03:49.765Z,58.00
2018-09-12T17:06:17.279Z,58.20
2018-09-12T17:08:44.779Z,57.80
2018-09-12T17:11:12.344Z,57.90
2018-09-12T17:13:39.792Z,57.90
2018-09-12T17:16:07.223Z,58.10
2018-09-12T17:18:34.723Z,58.70
2018-09-12T17:21:03.309Z,60.00
2018-09-12T17:23:30.747Z,59.90
2018-09-12T17:25:58.155Z,60.00
2018-09-12T17:28:25.659Z,59.70
2018-09-12T17:30:53.192Z,60.00
2018-09-12T17:33:20.780Z,59.70
2018-09-12T17:35:48.283Z,60.00
2018-09-12T17:38:15.709Z,60.10
2018-09-12T17:40:43.379Z,60.20
2018-09-12T17:43:11.888Z,60.50
2018-09-12T17:45:39.450Z,61.30
2018-09-12T17:48:06.880Z,61.80
2018-09-12T17:50:36.420Z,62.00
2018-09-12T17:53:04.923Z,61.60
2018-09-12T17:55:32.392Z,61.10
2018-09-12T17:57:59.795Z,60.80
2018-09-12T18:00:27.340Z,60.40
2018-09-12T18:02:54.731Z,60.80
2018-09-12T18:05:22.185Z,60.80
2018-09-12T18:07:49.587Z,61.20
2018-09-12T18:10:17.011Z,61.80
2018-09-12T18:12:44.446Z,62.40
2018-09-12T18:15:11.870Z,62.00
2018-09-12T18:17:39.386Z,62.70
2018-09-12T18:20:11.515Z,63.10
2018-09-12T18:22:38.952Z,63.00
2018-09-12T18:25:06.447Z,63.00
2018-09-12T18:27:34.961Z,64.50
2018-09-12T18:30:02.423Z,64.20
2018-09-12T18:32:29.827Z,65.00
2018-09-12T18:34:57.236Z,64.80
2018-09-12T18:37:25.667Z,65.20
2018-09-12T18:39:54.179Z,66.10
2018-09-12T18:42:21.762Z,66.20
2018-09-12T18:44:49.178Z,66.60
2018-09-12T18:47:17.663Z,69.60
2018-09-12T18:49:45.091Z,69.90
2018-09-12T18:52:12.576Z,69.80
2018-09-12T18:54:40.002Z,71.00
2018-09-12T18:57:08.271Z,71.70
2018-09-12T18:59:35.693Z,71.40
2018-09-12T19:02:03.182Z,71.80
2018-09-12T19:04:30.591Z,72.40
2018-09-12T19:06:58.094Z,72.30
2018-09-12T19:09:25.450Z,73.30
2018-09-12T19:11:52.895Z,72.90
2018-09-12T19:14:20.375Z,73.80
2018-09-12T19:16:47.910Z,74.10
2018-09-12T19:19:15.328Z,74.40
2018-09-12T19:21:42.791Z,75.20
2018-09-12T19:24:10.240Z,75.80
2018-09-12T19:26:37.750Z,77.20
2018-09-12T19:29:05.131Z,77.50
2018-09-12T19:31:32.591Z,77.40
2018-09-12T19:34:00.081Z,78.10
2018-09-12T19:36:27.518Z,78.60
2018-09-12T19:38:54.995Z,78.90
2018-09-12T19:41:22.450Z,79.80
2018-09-12T19:43:49.883Z,79.50
2018-09-12T19:46:17.362Z,79.80
2018-09-12T19:48:44.828Z,80.20
2018-09-12T19:51:17.106Z,80.10
2018-09-12T19:53:44.927Z,80.00
2018-09-12T19:56:13.424Z,80.00
2018-09-12T19:58:41.076Z,80.30
2018-09-12T20:01:08.807Z,80.20
2018-09-12T20:03:36.228Z,79.90
2018-09-12T20:06:04.248Z,80.00
2018-09-12T20:08:31.772Z,79.80
2018-09-12T20:10:59.230Z,79.70
2018-09-12T20:13:26.783Z,80.20
2018-09-12T20:15:54.396Z,79.90
2018-09-12T20:18:21.796Z,80.20
2018-09-12T20:20:49.629Z,80.00
2018-09-12T20:23:17.122Z,80.20
2018-09-12T20:25:44.530Z,80.40
2018-09-12T20:28:13.066Z,81.40
2018-09-12T20:30:40.472Z,81.40
2018-09-12T20:33:07.908Z,81.20
2018-09-12T20:35:35.575Z,81.90
2018-09-12T20:38:03.088Z,81.80
2018-09-12T20:40:30.576Z,82.20
2018-09-12T20:42:57.992Z,82.50
2018-09-12T20:45:25.412Z,82.70
2018-09-12T20:47:52.879Z,82.70
2018-09-12T20:50:20.375Z,83.80
2018-09-12T20:52:47.915Z,83.00
2018-09-12T20:55:15.319Z,83.20
2018-09-12T20:57:42.803Z,83.40
2018-09-12T21:00:10.207Z,83.80
2018-09-12T21:02:37.675Z,83.30
2018-09-12T21:05:05.124Z,83.60
2018-09-12T21:07:32.555Z,84.40
2018-09-12T21:10:00.108Z,85.30
2018-09-12T21:12:27.515Z,86.40
2018-09-12T21:14:54.953Z,86.80
2018-09-12T21:17:22.398Z,87.40
2018-09-12T21:19:49.814Z,88.10
2018-09-12T21:22:17.231Z,89.50
2018-09-12T21:24:44.663Z,90.10
2018-09-12T21:27:12.179Z,90.20
2018-09-12T21:29:39.620Z,90.30
2018-09-12T21:32:07.047Z,90.60
2018-09-12T21:34:34.491Z,90.80
2018-09-12T21:37:02.019Z,90.90
2018-09-12T21:39:29.416Z,91.00
2018-09-12T21:41:56.823Z,91.00
2018-09-12T21:44:24.316Z,91.30
2018-09-12T21:46:51.872Z,91.40
2018-09-12T21:49:19.328Z,91.60
2018-09-12T21:51:46.743Z,92.00
2018-09-12T21:54:14.179Z,92.10
2018-09-12T21:56:41.592Z,92.20
2018-09-12T21:59:09.043Z,92.40
2018-09-12T22:01:36.519Z,92.70
2018-09-12T22:04:03.948Z,93.00
2018-09-12T22:06:31.352Z,93.20
2018-09-12T22:08:58.847Z,93.50
2018-09-12T22:11:26.308Z,94.00
2018-09-12T22:13:53.816Z,94.20
2018-09-12T22:16:21.192Z,94.90
2018-09-12T22:18:48.627Z,95.40
2018-09-12T22:21:16.130Z,95.90
2018-09-12T22:23:43.555Z,96.20
2018-09-12T22:26:11.048Z,96.30
2018-09-12T22:28:38.544Z,96.80
2018-09-12T22:31:06.076Z,97.00
2018-09-12T22:33:33.605Z,97.50
2018-09-12T22:36:01.071Z,97.70
2018-09-12T22:38:28.600Z,97.90
2018-09-12T22:40:56.034Z,98.30
2018-09-12T22:43:23.556Z,98.40
2018-09-12T22:45:50.976Z,98.60
2018-09-12T22:48:18.391Z,98.70
2018-09-12T22:50:45.819Z,98.80
2018-09-12T22:53:13.268Z,99.10
2018-09-12T22:55:40.835Z,99.40
2018-09-12T22:58:08.356Z,99.50
2018-09-12T23:00:35.843Z,99.70
2018-09-12T23:03:03.345Z,99.60
2018-09-12T23:05:30.755Z,99.70
2018-09-12T23:07:58.189Z,99.90
2018-09-12T23:10:25.604Z,99.90
2018-09-12T23:12:53.195Z,99.90
2018-09-12T23:15:20.595Z,99.90
2018-09-12T23:17:48.044Z,99.90
2018-09-12T23:20:15.459Z,99.90
2018-09-12T23:22:42.907Z,99.90
2018-09-12T23:25:10.340Z,99.90
2018-09-12T23:27:37.888Z,99.90
2018-09-12T23:30:05.426Z,99.90
2018-09-12T23:32:32.867Z,99.90
2018-09-12T23:35:00.306Z,99.90
2018-09-12T23:37:27.785Z,99.90
2018-09-12T23:39:56.274Z,99.90
2018-09-12T23:42:23.692Z,99.90
2018-09-12T23:44:51.109Z,99.90
2018-09-12T23:47:18.651Z,99.90
2018-09-12T23:49:46.103Z,99.90
2018-09-12T23:52:13.653Z,99.90
2018-09-12T23:54:41.080Z,99.90
2018-09-12T23:57:08.497Z,99.90
2018-09-12T23:59:35.956Z,99.90
